sensor_id;sensor_type;location;lat;lon;timestamp;temperature;humidity
47791;DHT22;33547;49.044;1.156;2023-06-19T00:02:01;16.30;99.90
47791;DHT22;33547;49.044;1.156;2023-06-19T00:04:26;16.30;99.90
47791;DHT22;33547;49.044;1.156;2023-06-19T00:06:53;16.30;99.90
47791;DHT22;33547;49.044;1.156;2023-06-19T00:09:19;16.30;99.90
47791;DHT22;33547;49.044;1.156;2023-06-19T00:11:44;16.30;99.90
47791;DHT22;33547;49.044;1.156;2023-06-19T00:14:10;16.30;99.90
47791;DHT22;33547;49.044;1.156;2023-06-19T00:16:36;16.30;99.90
47791;DHT22;33547;49.044;1.156;2023-06-19T00:19:02;16.20;99.90
47791;DHT22;33547;49.044;1.156;2023-06-19T00:21:29;16.30;99.90
47791;DHT22;33547;49.044;1.156;2023-06-19T00:23:55;16.40;99.90
47791;DHT22;33547;49.044;1.156;2023-06-19T00:26:21;16.20;99.90
47791;DHT22;33547;49.044;1.156;2023-06-19T00:28:51;16.20;99.90
47791;DHT22;33547;49.044;1.156;2023-06-19T00:31:17;16.20;99.90
47791;DHT22;33547;49.044;1.156;2023-06-19T00:33:44;16.10;99.90
47791;DHT22;33547;49.044;1.156;2023-06-19T00:36:13;16.10;99.90
47791;DHT22;33547;49.044;1.156;2023-06-19T00:38:40;16.20;99.90
47791;DHT22;33547;49.044;1.156;2023-06-19T00:41:06;16.20;99.90
47791;DHT22;33547;49.044;1.156;2023-06-19T00:43:33;16.20;99.90
47791;DHT22;33547;49.044;1.156;2023-06-19T00:45:59;16.20;99.90
47791;DHT22;33547;49.044;1.156;2023-06-19T00:48:30;16.10;99.90
47791;DHT22;33547;49.044;1.156;2023-06-19T00:50:57;16.20;99.90
47791;DHT22;33547;49.044;1.156;2023-06-19T00:53:23;16.10;99.90
47791;DHT22;33547;49.044;1.156;2023-06-19T00:55:51;16.10;99.90
47791;DHT22;33547;49.044;1.156;2023-06-19T00:58:21;16.10;99.90
47791;DHT22;33547;49.044;1.156;2023-06-19T01:00:48;16.00;99.90
47791;DHT22;33547;49.044;1.156;2023-06-19T01:03:14;16.00;99.90
47791;DHT22;33547;49.044;1.156;2023-06-19T01:05:40;16.00;99.90
47791;DHT22;33547;49.044;1.156;2023-06-19T01:10:53;16.00;99.90
47791;DHT22;33547;49.044;1.156;2023-06-19T01:15:56;16.00;99.90
47791;DHT22;33547;49.044;1.156;2023-06-19T01:18:22;16.00;99.90
47791;DHT22;33547;49.044;1.156;2023-06-19T01:20:49;16.00;99.90
47791;DHT22;33547;49.044;1.156;2023-06-19T01:23:15;16.00;99.90
47791;DHT22;33547;49.044;1.156;2023-06-19T01:25:40;16.00;99.90
47791;DHT22;33547;49.044;1.156;2023-06-19T01:28:08;16.00;99.90
47791;DHT22;33547;49.044;1.156;2023-06-19T01:30:36;16.00;99.90
47791;DHT22;33547;49.044;1.156;2023-06-19T01:33:20;16.00;99.90
47791;DHT22;33547;49.044;1.156;2023-06-19T01:35:48;16.00;99.90
47791;DHT22;33547;49.044;1.156;2023-06-19T01:38:16;16.10;99.90
47791;DHT22;33547;49.044;1.156;2023-06-19T01:40:43;16.10;99.90
47791;DHT22;33547;49.044;1.156;2023-06-19T01:43:09;16.10;99.90
47791;DHT22;33547;49.044;1.156;2023-06-19T01:45:35;16.10;99.90
47791;DHT22;33547;49.044;1.156;2023-06-19T01:48:01;16.10;99.90
47791;DHT22;33547;49.044;1.156;2023-06-19T01:50:27;16.10;99.90
47791;DHT22;33547;49.044;1.156;2023-06-19T01:52:53;16.10;99.90
47791;DHT22;33547;49.044;1.156;2023-06-19T01:55:19;16.10;99.90
47791;DHT22;33547;49.044;1.156;2023-06-19T01:57:45;16.10;99.90
47791;DHT22;33547;49.044;1.156;2023-06-19T02:00:13;16.10;99.90
47791;DHT22;33547;49.044;1.156;2023-06-19T02:02:39;16.10;99.90
47791;DHT22;33547;49.044;1.156;2023-06-19T02:05:05;16.10;99.90
47791;DHT22;33547;49.044;1.156;2023-06-19T02:07:31;16.20;99.90
47791;DHT22;33547;49.044;1.156;2023-06-19T02:09:57;16.30;99.90
47791;DHT22;33547;49.044;1.156;2023-06-19T02:12:23;16.30;99.90
47791;DHT22;33547;49.044;1.156;2023-06-19T02:14:49;16.30;99.90
47791;DHT22;33547;49.044;1.156;2023-06-19T02:17:14;16.30;99.90
47791;DHT22;33547;49.044;1.156;2023-06-19T02:19:40;16.30;99.90
47791;DHT22;33547;49.044;1.156;2023-06-19T02:22:06;16.30;99.90
47791;DHT22;33547;49.044;1.156;2023-06-19T02:24:32;16.30;99.90
47791;DHT22;33547;49.044;1.156;2023-06-19T02:26:58;16.20;99.90
47791;DHT22;33547;49.044;1.156;2023-06-19T02:29:24;16.30;99.90
47791;DHT22;33547;49.044;1.156;2023-06-19T02:31:51;16.30;99.90
47791;DHT22;33547;49.044;1.156;2023-06-19T02:34:16;16.20;99.90
47791;DHT22;33547;49.044;1.156;2023-06-19T02:36:42;16.10;99.90
47791;DHT22;33547;49.044;1.156;2023-06-19T02:39:08;16.20;99.90
47791;DHT22;33547;49.044;1.156;2023-06-19T02:41:34;16.10;99.90
47791;DHT22;33547;49.044;1.156;2023-06-19T02:44:00;16.00;99.90
47791;DHT22;33547;49.044;1.156;2023-06-19T02:46:26;16.00;99.90
47791;DHT22;33547;49.044;1.156;2023-06-19T02:48:51;16.00;99.90
47791;DHT22;33547;49.044;1.156;2023-06-19T02:51:17;15.90;99.90
47791;DHT22;33547;49.044;1.156;2023-06-19T02:53:43;15.80;99.90
47791;DHT22;33547;49.044;1.156;2023-06-19T02:56:10;15.80;99.90
47791;DHT22;33547;49.044;1.156;2023-06-19T02:58:36;15.70;99.90
47791;DHT22;33547;49.044;1.156;2023-06-19T03:01:03;15.80;99.90
47791;DHT22;33547;49.044;1.156;2023-06-19T03:03:29;15.70;99.90
47791;DHT22;33547;49.044;1.156;2023-06-19T03:05:56;15.70;99.90
47791;DHT22;33547;49.044;1.156;2023-06-19T03:08:21;15.60;99.90
47791;DHT22;33547;49.044;1.156;2023-06-19T03:10:47;15.60;99.90
47791;DHT22;33547;49.044;1.156;2023-06-19T03:13:13;15.60;99.90
47791;DHT22;33547;49.044;1.156;2023-06-19T03:15:39;15.60;99.90
47791;DHT22;33547;49.044;1.156;2023-06-19T03:18:04;15.50;99.90
47791;DHT22;33547;49.044;1.156;2023-06-19T03:20:32;15.50;99.90
47791;DHT22;33547;49.044;1.156;2023-06-19T03:22:58;15.50;99.90
47791;DHT22;33547;49.044;1.156;2023-06-19T03:25:24;15.50;99.90
47791;DHT22;33547;49.044;1.156;2023-06-19T03:27:50;15.40;99.90
47791;DHT22;33547;49.044;1.156;2023-06-19T03:30:15;15.40;99.90
47791;DHT22;33547;49.044;1.156;2023-06-19T03:32:44;15.40;99.90
47791;DHT22;33547;49.044;1.156;2023-06-19T03:35:09;15.30;99.90
47791;DHT22;33547;49.044;1.156;2023-06-19T03:37:36;15.30;99.90
47791;DHT22;33547;49.044;1.156;2023-06-19T03:40:01;15.30;99.90
47791;DHT22;33547;49.044;1.156;2023-06-19T03:42:28;15.20;99.90
47791;DHT22;33547;49.044;1.156;2023-06-19T03:44:54;15.20;99.90
47791;DHT22;33547;49.044;1.156;2023-06-19T03:47:20;15.20;99.90
47791;DHT22;33547;49.044;1.156;2023-06-19T03:49:46;15.20;99.90
47791;DHT22;33547;49.044;1.156;2023-06-19T03:52:14;15.20;99.90
47791;DHT22;33547;49.044;1.156;2023-06-19T03:54:39;15.20;99.90
47791;DHT22;33547;49.044;1.156;2023-06-19T03:57:05;15.20;99.90
47791;DHT22;33547;49.044;1.156;2023-06-19T03:59:31;15.10;99.90
47791;DHT22;33547;49.044;1.156;2023-06-19T04:01:57;15.10;99.90
47791;DHT22;33547;49.044;1.156;2023-06-19T04:04:23;15.10;99.90
47791;DHT22;33547;49.044;1.156;2023-06-19T04:06:49;15.10;99.90
47791;DHT22;33547;49.044;1.156;2023-06-19T04:09:15;15.10;99.90
47791;DHT22;33547;49.044;1.156;2023-06-19T04:11:41;15.20;99.90
47791;DHT22;33547;49.044;1.156;2023-06-19T04:14:06;15.20;99.90
47791;DHT22;33547;49.044;1.156;2023-06-19T04:16:32;15.30;99.90
47791;DHT22;33547;49.044;1.156;2023-06-19T04:18:58;15.30;99.90
47791;DHT22;33547;49.044;1.156;2023-06-19T04:21:23;15.30;99.90
47791;DHT22;33547;49.044;1.156;2023-06-19T04:23:50;15.40;99.90
47791;DHT22;33547;49.044;1.156;2023-06-19T04:26:15;15.40;99.90
47791;DHT22;33547;49.044;1.156;2023-06-19T04:28:41;15.50;99.90
47791;DHT22;33547;49.044;1.156;2023-06-19T04:31:07;15.50;99.90
47791;DHT22;33547;49.044;1.156;2023-06-19T04:33:33;15.50;99.90
47791;DHT22;33547;49.044;1.156;2023-06-19T04:35:58;15.60;99.90
47791;DHT22;33547;49.044;1.156;2023-06-19T04:38:24;15.80;99.90
47791;DHT22;33547;49.044;1.156;2023-06-19T04:40:53;16.10;99.90
47791;DHT22;33547;49.044;1.156;2023-06-19T04:43:18;16.10;99.90
47791;DHT22;33547;49.044;1.156;2023-06-19T04:45:44;16.10;99.90
47791;DHT22;33547;49.044;1.156;2023-06-19T04:48:10;16.10;99.90
47791;DHT22;33547;49.044;1.156;2023-06-19T04:50:36;16.10;99.90
47791;DHT22;33547;49.044;1.156;2023-06-19T04:53:02;16.10;99.90
47791;DHT22;33547;49.044;1.156;2023-06-19T04:55:28;16.20;99.90
47791;DHT22;33547;49.044;1.156;2023-06-19T04:57:53;16.20;99.90
47791;DHT22;33547;49.044;1.156;2023-06-19T05:00:20;16.20;99.90
47791;DHT22;33547;49.044;1.156;2023-06-19T05:02:49;16.30;99.90
47791;DHT22;33547;49.044;1.156;2023-06-19T05:05:15;16.40;99.90
47791;DHT22;33547;49.044;1.156;2023-06-19T05:07:41;16.40;99.90
47791;DHT22;33547;49.044;1.156;2023-06-19T05:10:07;16.40;99.90
47791;DHT22;33547;49.044;1.156;2023-06-19T05:12:35;16.50;99.90
47791;DHT22;33547;49.044;1.156;2023-06-19T05:15:01;16.60;99.90
47791;DHT22;33547;49.044;1.156;2023-06-19T05:17:27;16.70;99.90
47791;DHT22;33547;49.044;1.156;2023-06-19T05:19:53;16.80;99.90
47791;DHT22;33547;49.044;1.156;2023-06-19T05:22:19;17.00;99.90
47791;DHT22;33547;49.044;1.156;2023-06-19T05:24:47;17.20;99.90
47791;DHT22;33547;49.044;1.156;2023-06-19T05:27:12;17.20;99.90
47791;DHT22;33547;49.044;1.156;2023-06-19T05:29:38;17.40;99.90
47791;DHT22;33547;49.044;1.156;2023-06-19T05:32:04;17.60;99.90
47791;DHT22;33547;49.044;1.156;2023-06-19T05:34:30;17.90;99.90
47791;DHT22;33547;49.044;1.156;2023-06-19T05:36:55;18.30;99.90
47791;DHT22;33547;49.044;1.156;2023-06-19T05:39:21;18.40;99.90
47791;DHT22;33547;49.044;1.156;2023-06-19T05:41:47;18.60;99.90
47791;DHT22;33547;49.044;1.156;2023-06-19T05:44:12;18.60;99.90
47791;DHT22;33547;49.044;1.156;2023-06-19T05:46:41;18.70;99.90
47791;DHT22;33547;49.044;1.156;2023-06-19T05:49:07;18.80;99.90
47791;DHT22;33547;49.044;1.156;2023-06-19T05:51:33;18.80;99.90
47791;DHT22;33547;49.044;1.156;2023-06-19T05:53:59;19.10;99.90
47791;DHT22;33547;49.044;1.156;2023-06-19T05:56:30;18.90;99.90
47791;DHT22;33547;49.044;1.156;2023-06-19T05:58:55;18.90;99.90
47791;DHT22;33547;49.044;1.156;2023-06-19T06:01:21;18.80;99.90
47791;DHT22;33547;49.044;1.156;2023-06-19T06:03:47;18.70;99.90
47791;DHT22;33547;49.044;1.156;2023-06-19T06:06:12;18.60;99.90
47791;DHT22;33547;49.044;1.156;2023-06-19T06:08:38;18.60;99.90
47791;DHT22;33547;49.044;1.156;2023-06-19T06:11:04;18.80;99.90
47791;DHT22;33547;49.044;1.156;2023-06-19T06:13:29;18.90;99.90
47791;DHT22;33547;49.044;1.156;2023-06-19T06:15:55;18.90;99.90
47791;DHT22;33547;49.044;1.156;2023-06-19T06:18:21;19.00;99.90
47791;DHT22;33547;49.044;1.156;2023-06-19T06:20:47;18.70;99.90
47791;DHT22;33547;49.044;1.156;2023-06-19T06:23:13;18.40;99.90
47791;DHT22;33547;49.044;1.156;2023-06-19T06:25:38;18.30;99.90
47791;DHT22;33547;49.044;1.156;2023-06-19T06:28:04;18.40;99.90
47791;DHT22;33547;49.044;1.156;2023-06-19T06:30:30;18.20;99.90
47791;DHT22;33547;49.044;1.156;2023-06-19T06:32:56;18.30;99.90
47791;DHT22;33547;49.044;1.156;2023-06-19T06:35:21;18.30;99.90
47791;DHT22;33547;49.044;1.156;2023-06-19T06:37:47;18.40;99.90
47791;DHT22;33547;49.044;1.156;2023-06-19T06:40:15;18.30;99.90
47791;DHT22;33547;49.044;1.156;2023-06-19T06:42:41;18.40;99.90
47791;DHT22;33547;49.044;1.156;2023-06-19T06:45:07;18.50;99.90
47791;DHT22;33547;49.044;1.156;2023-06-19T06:47:34;18.60;99.90
47791;DHT22;33547;49.044;1.156;2023-06-19T06:50:00;18.80;99.90
47791;DHT22;33547;49.044;1.156;2023-06-19T06:52:25;18.70;99.90
47791;DHT22;33547;49.044;1.156;2023-06-19T06:54:53;18.80;99.90
47791;DHT22;33547;49.044;1.156;2023-06-19T06:57:18;18.80;99.90
47791;DHT22;33547;49.044;1.156;2023-06-19T06:59:44;18.70;99.90
47791;DHT22;33547;49.044;1.156;2023-06-19T07:02:10;18.70;99.90
47791;DHT22;33547;49.044;1.156;2023-06-19T07:04:35;18.90;99.90
47791;DHT22;33547;49.044;1.156;2023-06-19T07:07:01;19.00;99.90
47791;DHT22;33547;49.044;1.156;2023-06-19T07:09:29;19.10;99.90
47791;DHT22;33547;49.044;1.156;2023-06-19T07:11:54;19.20;99.90
47791;DHT22;33547;49.044;1.156;2023-06-19T07:14:20;19.40;99.90
47791;DHT22;33547;49.044;1.156;2023-06-19T07:16:46;19.60;99.90
47791;DHT22;33547;49.044;1.156;2023-06-19T07:19:12;19.90;99.90
47791;DHT22;33547;49.044;1.156;2023-06-19T07:21:38;20.00;99.90
47791;DHT22;33547;49.044;1.156;2023-06-19T07:24:05;20.00;99.90
47791;DHT22;33547;49.044;1.156;2023-06-19T07:26:31;20.10;99.90
47791;DHT22;33547;49.044;1.156;2023-06-19T07:28:57;20.50;99.90
47791;DHT22;33547;49.044;1.156;2023-06-19T07:31:23;21.50;99.90
47791;DHT22;33547;49.044;1.156;2023-06-19T07:33:48;21.50;99.90
47791;DHT22;33547;49.044;1.156;2023-06-19T07:36:14;21.40;99.90
47791;DHT22;33547;49.044;1.156;2023-06-19T07:38:43;21.40;99.90
47791;DHT22;33547;49.044;1.156;2023-06-19T07:41:09;21.40;99.90
47791;DHT22;33547;49.044;1.156;2023-06-19T07:43:36;21.40;99.90
47791;DHT22;33547;49.044;1.156;2023-06-19T07:46:01;21.30;99.90
47791;DHT22;33547;49.044;1.156;2023-06-19T07:48:27;21.70;99.90
47791;DHT22;33547;49.044;1.156;2023-06-19T07:50:53;21.80;99.90
47791;DHT22;33547;49.044;1.156;2023-06-19T07:53:19;21.80;99.90
47791;DHT22;33547;49.044;1.156;2023-06-19T07:55:45;21.80;99.90
47791;DHT22;33547;49.044;1.156;2023-06-19T07:58:11;21.70;99.90
47791;DHT22;33547;49.044;1.156;2023-06-19T08:00:37;21.80;99.90
47791;DHT22;33547;49.044;1.156;2023-06-19T08:03:02;21.80;99.90
47791;DHT22;33547;49.044;1.156;2023-06-19T08:05:28;22.30;99.90
47791;DHT22;33547;49.044;1.156;2023-06-19T08:07:54;23.00;99.90
47791;DHT22;33547;49.044;1.156;2023-06-19T08:10:19;23.40;99.90
47791;DHT22;33547;49.044;1.156;2023-06-19T08:12:45;23.80;99.90
47791;DHT22;33547;49.044;1.156;2023-06-19T08:15:11;24.00;99.90
47791;DHT22;33547;49.044;1.156;2023-06-19T08:17:39;24.60;99.90
47791;DHT22;33547;49.044;1.156;2023-06-19T08:20:06;24.30;99.90
47791;DHT22;33547;49.044;1.156;2023-06-19T08:22:32;24.90;99.90
47791;DHT22;33547;49.044;1.156;2023-06-19T08:24:58;24.80;99.90
47791;DHT22;33547;49.044;1.156;2023-06-19T08:27:24;26.00;99.90
47791;DHT22;33547;49.044;1.156;2023-06-19T08:29:49;27.20;99.90
47791;DHT22;33547;49.044;1.156;2023-06-19T08:32:15;27.60;99.90
47791;DHT22;33547;49.044;1.156;2023-06-19T08:34:41;27.20;99.90
47791;DHT22;33547;49.044;1.156;2023-06-19T08:37:07;27.40;99.90
47791;DHT22;33547;49.044;1.156;2023-06-19T08:39:33;28.00;99.90
47791;DHT22;33547;49.044;1.156;2023-06-19T08:41:59;28.30;99.90
47791;DHT22;33547;49.044;1.156;2023-06-19T08:44:25;29.20;99.90
47791;DHT22;33547;49.044;1.156;2023-06-19T08:46:51;29.50;99.90
47791;DHT22;33547;49.044;1.156;2023-06-19T08:49:16;30.40;99.90
47791;DHT22;33547;49.044;1.156;2023-06-19T08:51:42;30.50;99.90
47791;DHT22;33547;49.044;1.156;2023-06-19T08:54:08;30.30;99.90
47791;DHT22;33547;49.044;1.156;2023-06-19T08:56:35;30.20;99.90
47791;DHT22;33547;49.044;1.156;2023-06-19T08:59:10;30.40;99.90
47791;DHT22;33547;49.044;1.156;2023-06-19T09:01:37;29.90;99.90
47791;DHT22;33547;49.044;1.156;2023-06-19T09:04:13;29.90;99.90
47791;DHT22;33547;49.044;1.156;2023-06-19T09:06:56;30.00;99.90
47791;DHT22;33547;49.044;1.156;2023-06-19T09:09:24;29.90;99.90
47791;DHT22;33547;49.044;1.156;2023-06-19T09:12:11;29.20;99.90
47791;DHT22;33547;49.044;1.156;2023-06-19T09:14:39;28.50;99.90
47791;DHT22;33547;49.044;1.156;2023-06-19T09:17:13;29.20;99.90
47791;DHT22;33547;49.044;1.156;2023-06-19T09:19:52;29.90;99.90
47791;DHT22;33547;49.044;1.156;2023-06-19T09:22:20;30.30;99.90
47791;DHT22;33547;49.044;1.156;2023-06-19T09:24:47;30.40;99.90
47791;DHT22;33547;49.044;1.156;2023-06-19T09:27:14;30.60;99.90
47791;DHT22;33547;49.044;1.156;2023-06-19T09:29:45;29.70;99.90
47791;DHT22;33547;49.044;1.156;2023-06-19T09:32:23;29.70;99.90
47791;DHT22;33547;49.044;1.156;2023-06-19T09:34:51;30.10;99.90
47791;DHT22;33547;49.044;1.156;2023-06-19T09:37:23;30.70;99.90
47791;DHT22;33547;49.044;1.156;2023-06-19T09:39:57;31.60;99.90
47791;DHT22;33547;49.044;1.156;2023-06-19T09:42:30;31.60;97.10
47791;DHT22;33547;49.044;1.156;2023-06-19T09:45:03;32.80;96.90
47791;DHT22;33547;49.044;1.156;2023-06-19T09:47:43;31.00;97.50
47791;DHT22;33547;49.044;1.156;2023-06-19T09:50:11;30.20;98.70
47791;DHT22;33547;49.044;1.156;2023-06-19T09:52:38;29.70;98.70
47791;DHT22;33547;49.044;1.156;2023-06-19T09:55:06;30.20;99.10
47791;DHT22;33547;49.044;1.156;2023-06-19T09:57:32;30.90;98.60
47791;DHT22;33547;49.044;1.156;2023-06-19T09:59:59;29.80;98.10
47791;DHT22;33547;49.044;1.156;2023-06-19T10:02:33;30.50;98.50
47791;DHT22;33547;49.044;1.156;2023-06-19T10:05:00;30.50;98.10
47791;DHT22;33547;49.044;1.156;2023-06-19T10:07:33;29.10;98.70
47791;DHT22;33547;49.044;1.156;2023-06-19T10:10:08;28.60;99.30
47791;DHT22;33547;49.044;1.156;2023-06-19T10:15:12;29.10;97.90
47791;DHT22;33547;49.044;1.156;2023-06-19T10:17:43;29.80;97.20
47791;DHT22;33547;49.044;1.156;2023-06-19T10:20:27;29.90;95.90
47791;DHT22;33547;49.044;1.156;2023-06-19T10:23:02;29.70;97.00
47791;DHT22;33547;49.044;1.156;2023-06-19T10:25:29;29.30;97.40
47791;DHT22;33547;49.044;1.156;2023-06-19T10:27:57;29.30;98.40
47791;DHT22;33547;49.044;1.156;2023-06-19T10:30:23;28.80;97.70
47791;DHT22;33547;49.044;1.156;2023-06-19T10:32:48;28.90;99.30
47791;DHT22;33547;49.044;1.156;2023-06-19T10:35:15;29.30;98.30
47791;DHT22;33547;49.044;1.156;2023-06-19T10:37:42;30.00;96.80
47791;DHT22;33547;49.044;1.156;2023-06-19T10:40:08;29.10;96.10
47791;DHT22;33547;49.044;1.156;2023-06-19T10:42:36;29.10;96.50
47791;DHT22;33547;49.044;1.156;2023-06-19T10:45:10;29.00;98.20
47791;DHT22;33547;49.044;1.156;2023-06-19T10:47:38;29.30;96.80
47791;DHT22;33547;49.044;1.156;2023-06-19T10:50:15;29.40;98.20
47791;DHT22;33547;49.044;1.156;2023-06-19T10:52:45;29.80;96.50
47791;DHT22;33547;49.044;1.156;2023-06-19T10:55:12;29.80;96.00
47791;DHT22;33547;49.044;1.156;2023-06-19T10:57:39;30.00;96.90
47791;DHT22;33547;49.044;1.156;2023-06-19T11:00:06;29.40;96.00
47791;DHT22;33547;49.044;1.156;2023-06-19T11:02:38;29.30;96.40
47791;DHT22;33547;49.044;1.156;2023-06-19T11:05:05;29.00;96.00
47791;DHT22;33547;49.044;1.156;2023-06-19T11:07:32;29.00;97.50
47791;DHT22;33547;49.044;1.156;2023-06-19T11:09:58;28.80;97.30
47791;DHT22;33547;49.044;1.156;2023-06-19T11:12:23;29.10;97.20
47791;DHT22;33547;49.044;1.156;2023-06-19T11:14:49;28.60;96.60
47791;DHT22;33547;49.044;1.156;2023-06-19T11:17:16;28.30;97.10
47791;DHT22;33547;49.044;1.156;2023-06-19T11:19:43;28.50;97.10
47791;DHT22;33547;49.044;1.156;2023-06-19T11:22:10;28.30;97.00
47791;DHT22;33547;49.044;1.156;2023-06-19T11:24:36;28.00;96.80
47791;DHT22;33547;49.044;1.156;2023-06-19T11:27:02;27.80;96.50
47791;DHT22;33547;49.044;1.156;2023-06-19T11:29:33;27.70;97.50
47791;DHT22;33547;49.044;1.156;2023-06-19T11:32:08;27.70;97.50
47791;DHT22;33547;49.044;1.156;2023-06-19T11:34:34;27.60;96.80
47791;DHT22;33547;49.044;1.156;2023-06-19T11:37:11;27.70;97.40
47791;DHT22;33547;49.044;1.156;2023-06-19T11:39:37;27.90;97.10
47791;DHT22;33547;49.044;1.156;2023-06-19T11:42:03;28.20;96.60
47791;DHT22;33547;49.044;1.156;2023-06-19T11:44:29;28.70;96.50
47791;DHT22;33547;49.044;1.156;2023-06-19T11:46:58;28.80;95.50
47791;DHT22;33547;49.044;1.156;2023-06-19T11:49:35;28.60;97.20
47791;DHT22;33547;49.044;1.156;2023-06-19T11:52:01;28.90;95.80
47791;DHT22;33547;49.044;1.156;2023-06-19T11:54:26;28.70;96.50
47791;DHT22;33547;49.044;1.156;2023-06-19T11:56:52;28.20;96.30
47791;DHT22;33547;49.044;1.156;2023-06-19T11:59:18;28.10;97.20
47791;DHT22;33547;49.044;1.156;2023-06-19T12:01:43;27.80;97.40
47791;DHT22;33547;49.044;1.156;2023-06-19T12:04:09;27.80;97.40
47791;DHT22;33547;49.044;1.156;2023-06-19T12:06:35;27.80;97.20
47791;DHT22;33547;49.044;1.156;2023-06-19T12:09:01;27.60;96.70
47791;DHT22;33547;49.044;1.156;2023-06-19T12:11:27;27.70;97.40
47791;DHT22;33547;49.044;1.156;2023-06-19T12:13:52;27.70;96.50
47791;DHT22;33547;49.044;1.156;2023-06-19T12:16:19;27.50;97.00
47791;DHT22;33547;49.044;1.156;2023-06-19T12:18:44;27.60;96.90
47791;DHT22;33547;49.044;1.156;2023-06-19T12:21:10;27.70;97.10
47791;DHT22;33547;49.044;1.156;2023-06-19T12:23:36;27.50;96.80
47791;DHT22;33547;49.044;1.156;2023-06-19T12:26:01;27.40;96.90
47791;DHT22;33547;49.044;1.156;2023-06-19T12:28:27;27.40;97.80
47791;DHT22;33547;49.044;1.156;2023-06-19T12:30:53;27.50;98.60
47791;DHT22;33547;49.044;1.156;2023-06-19T12:33:19;27.60;97.00
47791;DHT22;33547;49.044;1.156;2023-06-19T12:35:46;27.60;97.30
47791;DHT22;33547;49.044;1.156;2023-06-19T12:38:12;27.30;96.90
47791;DHT22;33547;49.044;1.156;2023-06-19T12:40:38;27.30;97.80
47791;DHT22;33547;49.044;1.156;2023-06-19T12:43:04;27.30;97.20
47791;DHT22;33547;49.044;1.156;2023-06-19T12:45:30;27.40;98.20
47791;DHT22;33547;49.044;1.156;2023-06-19T12:47:55;27.60;97.90
47791;DHT22;33547;49.044;1.156;2023-06-19T12:50:21;27.40;98.10
47791;DHT22;33547;49.044;1.156;2023-06-19T12:52:47;27.30;98.30
47791;DHT22;33547;49.044;1.156;2023-06-19T12:55:13;27.20;98.50
47791;DHT22;33547;49.044;1.156;2023-06-19T12:57:39;27.00;99.20
47791;DHT22;33547;49.044;1.156;2023-06-19T13:00:09;26.70;99.20
47791;DHT22;33547;49.044;1.156;2023-06-19T13:02:35;26.70;98.20
47791;DHT22;33547;49.044;1.156;2023-06-19T13:05:01;26.70;99.90
47791;DHT22;33547;49.044;1.156;2023-06-19T13:07:26;26.70;99.10
47791;DHT22;33547;49.044;1.156;2023-06-19T13:09:52;26.90;98.80
47791;DHT22;33547;49.044;1.156;2023-06-19T13:12:18;26.90;99.90
47791;DHT22;33547;49.044;1.156;2023-06-19T13:14:43;26.70;99.40
47791;DHT22;33547;49.044;1.156;2023-06-19T13:17:09;26.60;99.90
47791;DHT22;33547;49.044;1.156;2023-06-19T13:19:35;26.50;99.60
47791;DHT22;33547;49.044;1.156;2023-06-19T13:22:00;26.40;99.90
47791;DHT22;33547;49.044;1.156;2023-06-19T13:24:26;26.40;99.90
47791;DHT22;33547;49.044;1.156;2023-06-19T13:26:53;26.30;99.90
47791;DHT22;33547;49.044;1.156;2023-06-19T13:29:19;26.20;99.90
47791;DHT22;33547;49.044;1.156;2023-06-19T13:31:45;26.20;99.90
47791;DHT22;33547;49.044;1.156;2023-06-19T13:34:10;26.00;99.90
47791;DHT22;33547;49.044;1.156;2023-06-19T13:36:36;25.90;99.90
47791;DHT22;33547;49.044;1.156;2023-06-19T13:39:02;25.80;99.90
47791;DHT22;33547;49.044;1.156;2023-06-19T13:41:28;25.90;99.90
47791;DHT22;33547;49.044;1.156;2023-06-19T13:43:56;25.80;99.90
47791;DHT22;33547;49.044;1.156;2023-06-19T13:46:22;25.80;99.90
47791;DHT22;33547;49.044;1.156;2023-06-19T13:48:48;25.90;99.90
47791;DHT22;33547;49.044;1.156;2023-06-19T13:51:17;25.80;99.90
47791;DHT22;33547;49.044;1.156;2023-06-19T13:53:43;25.80;99.90
47791;DHT22;33547;49.044;1.156;2023-06-19T13:56:10;25.60;99.90
47791;DHT22;33547;49.044;1.156;2023-06-19T13:58:36;25.60;99.90
47791;DHT22;33547;49.044;1.156;2023-06-19T14:01:01;25.60;99.90
47791;DHT22;33547;49.044;1.156;2023-06-19T14:03:27;25.60;99.90
47791;DHT22;33547;49.044;1.156;2023-06-19T14:05:53;25.70;99.90
47791;DHT22;33547;49.044;1.156;2023-06-19T14:08:18;25.60;99.90
47791;DHT22;33547;49.044;1.156;2023-06-19T14:10:44;25.70;99.90
47791;DHT22;33547;49.044;1.156;2023-06-19T14:13:10;25.70;99.90
47791;DHT22;33547;49.044;1.156;2023-06-19T14:15:35;25.70;99.90
47791;DHT22;33547;49.044;1.156;2023-06-19T14:18:01;25.60;99.90
47791;DHT22;33547;49.044;1.156;2023-06-19T14:20:27;25.50;99.90
47791;DHT22;33547;49.044;1.156;2023-06-19T14:22:53;25.70;99.90
47791;DHT22;33547;49.044;1.156;2023-06-19T14:25:18;25.60;99.90
47791;DHT22;33547;49.044;1.156;2023-06-19T14:27:44;25.50;99.90
47791;DHT22;33547;49.044;1.156;2023-06-19T14:30:10;25.80;99.90
47791;DHT22;33547;49.044;1.156;2023-06-19T14:32:36;25.70;99.90
47791;DHT22;33547;49.044;1.156;2023-06-19T14:35:05;25.70;99.90
47791;DHT22;33547;49.044;1.156;2023-06-19T14:37:31;25.80;99.90
47791;DHT22;33547;49.044;1.156;2023-06-19T14:39:57;25.90;99.90
47791;DHT22;33547;49.044;1.156;2023-06-19T14:42:23;25.90;99.90
47791;DHT22;33547;49.044;1.156;2023-06-19T14:44:49;25.80;99.90
47791;DHT22;33547;49.044;1.156;2023-06-19T14:47:14;25.80;99.90
47791;DHT22;33547;49.044;1.156;2023-06-19T14:49:40;25.80;99.90
47791;DHT22;33547;49.044;1.156;2023-06-19T14:52:06;25.80;99.90
47791;DHT22;33547;49.044;1.156;2023-06-19T14:54:32;25.60;99.90
47791;DHT22;33547;49.044;1.156;2023-06-19T14:56:58;25.70;99.90
47791;DHT22;33547;49.044;1.156;2023-06-19T14:59:24;25.80;99.90
47791;DHT22;33547;49.044;1.156;2023-06-19T15:01:50;25.80;99.90
47791;DHT22;33547;49.044;1.156;2023-06-19T15:04:15;25.80;99.90
47791;DHT22;33547;49.044;1.156;2023-06-19T15:06:41;25.90;99.90
47791;DHT22;33547;49.044;1.156;2023-06-19T15:09:07;25.80;99.90
47791;DHT22;33547;49.044;1.156;2023-06-19T15:11:33;25.90;99.90
47791;DHT22;33547;49.044;1.156;2023-06-19T15:13:59;25.80;99.90
47791;DHT22;33547;49.044;1.156;2023-06-19T15:16:25;26.00;99.90
47791;DHT22;33547;49.044;1.156;2023-06-19T15:18:51;26.20;99.90
47791;DHT22;33547;49.044;1.156;2023-06-19T15:21:17;26.10;99.90
47791;DHT22;33547;49.044;1.156;2023-06-19T15:23:43;26.10;99.90
47791;DHT22;33547;49.044;1.156;2023-06-19T15:26:08;26.00;99.90
47791;DHT22;33547;49.044;1.156;2023-06-19T15:28:34;26.10;99.90
47791;DHT22;33547;49.044;1.156;2023-06-19T15:31:01;26.10;99.90
47791;DHT22;33547;49.044;1.156;2023-06-19T15:33:26;25.90;99.90
47791;DHT22;33547;49.044;1.156;2023-06-19T15:35:52;25.90;99.90